createdAt,value
2023-05-09T00:03:44.734Z,11.72
2023-05-09T00:08:47.605Z,11.51
2023-05-09T00:13:51.069Z,11.63
2023-05-09T00:18:53.889Z,11.56
2023-05-09T00:23:57.124Z,11.37
2023-05-09T00:28:59.272Z,11.40
2023-05-09T00:34:01.838Z,11.32
2023-05-09T00:39:05.711Z,11.57
2023-05-09T00:44:08.790Z,11.54
2023-05-09T00:49:12.672Z,11.50
2023-05-09T00:54:15.643Z,11.54
2023-05-09T00:59:19.147Z,11.45
2023-05-09T01:04:21.418Z,11.49
2023-05-09T01:09:45.559Z,11.45
2023-05-09T01:14:55.861Z,11.34
2023-05-09T01:20:19.091Z,11.40
2023-05-09T01:25:37.838Z,11.22
2023-05-09T01:30:44.757Z,11.10
2023-05-09T01:35:53.093Z,11.33
2023-05-09T01:40:59.955Z,11.37
2023-05-09T01:46:06.056Z,11.47
2023-05-09T01:51:11.285Z,11.47
2023-05-09T01:56:17.045Z,11.33
2023-05-09T02:01:20.721Z,11.40
2023-05-09T02:06:25.207Z,11.30
2023-05-09T02:11:27.742Z,11.21
2023-05-09T02:16:30.554Z,11.18
2023-05-09T02:21:33.308Z,11.21
2023-05-09T02:26:36.186Z,11.30
2023-05-09T02:31:41.544Z,11.36
2023-05-09T02:36:44.627Z,11.39
2023-05-09T02:41:50.582Z,11.32
2023-05-09T02:46:54.391Z,11.13
2023-05-09T02:51:56.693Z,11.09
2023-05-09T02:56:59.612Z,11.00
2023-05-09T03:02:02.348Z,11.03
2023-05-09T03:07:05.895Z,11.08
2023-05-09T03:12:09.241Z,10.90
2023-05-09T03:17:12.156Z,10.81
2023-05-09T03:22:15.381Z,10.83
2023-05-09T03:27:27.714Z,10.73
2023-05-09T03:32:31.095Z,10.71
2023-05-09T03:37:33.227Z,10.59
2023-05-09T03:42:35.891Z,10.64
2023-05-09T03:47:39.046Z,10.58
2023-05-09T03:52:42.066Z,10.58
2023-05-09T03:57:44.434Z,10.54
2023-05-09T04:02:47.750Z,10.63
2023-05-09T04:07:58.822Z,10.68
2023-05-09T04:13:01.616Z,10.62
2023-05-09T04:18:05.692Z,10.80
2023-05-09T04:23:08.209Z,10.57
2023-05-09T04:28:10.964Z,10.66
2023-05-09T04:33:13.854Z,10.62
2023-05-09T04:38:18.262Z,10.62
2023-05-09T04:43:21.390Z,10.44
2023-05-09T04:48:24.318Z,10.51
2023-05-09T04:53:28.534Z,10.56
2023-05-09T04:58:34.684Z,10.46
2023-05-09T05:03:37.469Z,10.56
2023-05-09T05:08:42.297Z,10.47
2023-05-09T05:13:45.253Z,10.41
2023-05-09T05:18:48.011Z,10.48
2023-05-09T05:23:51.830Z,10.28
2023-05-09T05:28:56.799Z,10.34
2023-05-09T05:34:02.752Z,10.25
2023-05-09T05:39:06.746Z,10.10
2023-05-09T05:44:09.734Z,10.11
2023-05-09T05:49:12.338Z,9.91
2023-05-09T05:54:14.921Z,10.01
2023-05-09T05:59:18.001Z,10.12
2023-05-09T06:04:21.314Z,10.18
2023-05-09T06:09:24.159Z,10.21
2023-05-09T06:14:26.673Z,10.10
2023-05-09T06:19:29.925Z,10.09
2023-05-09T06:24:36.120Z,10.01
2023-05-09T06:29:38.979Z,10.14
2023-05-09T06:34:42.303Z,10.12
2023-05-09T06:39:44.964Z,10.09
2023-05-09T06:44:47.568Z,10.20
2023-05-09T06:49:50.604Z,10.11
2023-05-09T06:54:53.647Z,10.24
2023-05-09T06:59:55.808Z,10.19
2023-05-09T07:04:58.808Z,10.15
2023-05-09T07:10:10.328Z,10.02
2023-05-09T07:15:22.760Z,10.04
2023-05-09T07:20:31.174Z,10.16
2023-05-09T07:25:34.108Z,10.28
2023-05-09T07:30:36.280Z,10.31
2023-05-09T07:35:38.945Z,10.20
2023-05-09T07:40:41.637Z,10.07
2023-05-09T07:45:44.246Z,10.14
2023-05-09T07:50:47.036Z,9.99
2023-05-09T07:55:50.598Z,10.11
2023-05-09T08:00:56.428Z,10.25
2023-05-09T08:05:59.153Z,9.99
2023-05-09T08:11:01.891Z,9.95
2023-05-09T08:16:04.847Z,9.73
2023-05-09T08:21:07.004Z,9.48
2023-05-09T08:26:09.487Z,9.57
2023-05-09T08:31:12.166Z,9.64
2023-05-09T08:36:14.822Z,9.66
2023-05-09T08:41:17.346Z,9.69
2023-05-09T08:46:27.795Z,9.66
2023-05-09T08:51:32.532Z,9.69
2023-05-09T08:56:36.677Z,9.90
2023-05-09T09:01:41.011Z,9.92
2023-05-09T09:06:43.909Z,9.63
2023-05-09T09:11:47.770Z,9.85
2023-05-09T09:16:52.237Z,9.75
2023-05-09T09:21:57.566Z,9.60
2023-05-09T09:27:06.565Z,9.71
2023-05-09T09:32:09.320Z,9.72
2023-05-09T09:37:23.296Z,9.71
2023-05-09T09:42:25.992Z,9.71
2023-05-09T09:47:33.020Z,9.53
2023-05-09T09:52:35.205Z,9.57
2023-05-09T09:57:40.217Z,9.67
2023-05-09T10:02:56.102Z,9.76
2023-05-09T10:08:04.905Z,9.69
2023-05-09T10:13:10.465Z,9.81
2023-05-09T10:18:18.493Z,9.80
2023-05-09T10:23:23.285Z,9.67
2023-05-09T10:28:45.584Z,9.75
2023-05-09T10:33:50.679Z,9.80
2023-05-09T10:38:55.388Z,9.65
2023-05-09T10:43:59.340Z,9.59
2023-05-09T10:49:02.451Z,9.48
2023-05-09T10:54:15.328Z,9.70
2023-05-09T10:59:34.496Z,9.76
2023-05-09T11:04:38.189Z,9.77
2023-05-09T11:09:41.730Z,9.91
2023-05-09T11:14:45.800Z,10.08
2023-05-09T11:19:48.475Z,9.99
2023-05-09T11:24:54.231Z,10.02
2023-05-09T11:29:58.909Z,10.09
2023-05-09T11:35:12.787Z,10.23
2023-05-09T11:40:18.020Z,10.41
2023-05-09T11:45:21.672Z,10.50
2023-05-09T11:50:24.539Z,10.52
2023-05-09T11:55:30.576Z,10.45
2023-05-09T12:00:33.427Z,10.26
2023-05-09T12:05:39.732Z,10.40
2023-05-09T12:10:41.967Z,10.26
2023-05-09T12:15:44.659Z,10.27
2023-05-09T12:20:51.430Z,10.34
2023-05-09T12:25:58.075Z,10.31
2023-05-09T12:31:01.581Z,10.20
2023-05-09T12:36:12.579Z,10.22
2023-05-09T12:41:33.302Z,10.00
2023-05-09T12:46:40.121Z,9.98
2023-05-09T12:51:50.094Z,9.95
2023-05-09T12:56:53.865Z,10.06
2023-05-09T13:02:00.970Z,10.16
2023-05-09T13:07:13.347Z,10.12
2023-05-09T13:12:16.087Z,10.08
2023-05-09T13:17:18.742Z,10.20
2023-05-09T13:22:21.310Z,10.09
2023-05-09T13:27:24.063Z,10.07
2023-05-09T13:32:27.061Z,10.07
2023-05-09T13:37:29.283Z,10.07
2023-05-09T13:42:32.233Z,10.03
2023-05-09T13:47:36.528Z,10.15
2023-05-09T13:52:39.570Z,9.99
2023-05-09T13:57:43.696Z,10.07
2023-05-09T14:02:46.572Z,10.14
2023-05-09T14:07:49.661Z,10.14
2023-05-09T14:24:41.548Z,10.15
2023-05-09T14:29:44.598Z,10.22
2023-05-09T14:34:49.747Z,9.94
2023-05-09T14:39:52.688Z,10.05
2023-05-09T14:44:55.302Z,10.15
2023-05-09T14:56:32.613Z,10.40
2023-05-09T15:01:40.005Z,10.85
2023-05-09T15:12:02.657Z,10.62
2023-05-09T15:17:04.978Z,10.52
2023-05-09T15:22:08.882Z,10.89
2023-05-09T15:27:11.552Z,10.66
2023-05-09T15:32:14.293Z,10.44
2023-05-09T15:37:16.943Z,10.32
2023-05-09T15:42:19.892Z,10.31
2023-05-09T15:47:22.379Z,10.39
2023-05-09T15:52:26.130Z,10.27
2023-05-09T15:57:29.233Z,10.03
2023-05-09T16:02:32.244Z,9.99
2023-05-09T16:07:35.758Z,10.09
2023-05-09T16:12:38.857Z,10.06
2023-05-09T16:17:41.598Z,9.98
2023-05-09T16:22:44.255Z,10.08
2023-05-09T16:27:46.384Z,9.98
2023-05-09T16:32:48.495Z,10.13
2023-05-09T16:37:51.008Z,10.10
2023-05-09T16:42:54.020Z,9.96
2023-05-09T16:47:58.976Z,9.95
2023-05-09T16:53:05.026Z,9.90
2023-05-09T16:58:07.776Z,9.92
2023-05-09T17:03:10.489Z,9.90
2023-05-09T17:08:13.050Z,10.06
2023-05-09T17:13:15.627Z,10.01
2023-05-09T17:18:29.119Z,10.09
2023-05-09T17:23:38.954Z,10.15
2023-05-09T17:28:41.774Z,10.14
2023-05-09T17:33:44.474Z,9.92
2023-05-09T17:38:47.173Z,10.08
2023-05-09T17:43:52.046Z,10.02
2023-05-09T17:48:54.146Z,10.00
2023-05-09T17:53:57.330Z,9.95
2023-05-09T17:59:00.034Z,9.94
2023-05-09T18:04:02.979Z,10.14
2023-05-09T18:09:06.487Z,10.02
2023-05-09T18:14:09.196Z,10.01
2023-05-09T18:19:11.499Z,9.98
2023-05-09T18:24:16.916Z,9.91
2023-05-09T18:29:19.903Z,9.88
2023-05-09T18:34:22.909Z,9.95
2023-05-09T18:39:25.960Z,9.89
2023-05-09T18:44:28.478Z,9.77
2023-05-09T18:49:31.007Z,9.67
2023-05-09T18:54:33.652Z,9.60
2023-05-09T18:59:36.274Z,9.67
2023-05-09T19:04:38.990Z,9.69
2023-05-09T19:09:41.620Z,9.65
2023-05-09T19:14:44.284Z,9.63
2023-05-09T19:19:47.036Z,9.66
2023-05-09T19:24:51.622Z,9.76
2023-05-09T19:29:53.801Z,9.69
2023-05-09T19:34:56.423Z,9.75
2023-05-09T19:39:58.959Z,9.73
2023-05-09T19:45:02.090Z,9.75
2023-05-09T19:50:04.725Z,9.61
2023-05-09T19:55:09.994Z,9.77
2023-05-09T20:00:12.840Z,9.47
2023-05-09T20:05:15.605Z,9.35
2023-05-09T20:10:17.770Z,9.45
2023-05-09T20:15:20.535Z,9.55
2023-05-09T20:20:23.315Z,9.58
2023-05-09T20:25:25.950Z,9.51
2023-05-09T20:30:28.796Z,9.48
2023-05-09T20:35:31.715Z,9.42
2023-05-09T20:40:34.459Z,9.40
2023-05-09T20:45:39.946Z,9.45
2023-05-09T20:50:42.111Z,9.48
2023-05-09T20:55:45.322Z,9.49
2023-05-09T21:00:47.563Z,9.54
2023-05-09T21:05:50.124Z,9.59
2023-05-09T21:10:53.151Z,9.67
2023-05-09T21:15:55.383Z,9.57
2023-05-09T21:20:57.825Z,9.51
2023-05-09T21:26:00.773Z,9.53
2023-05-09T21:31:03.416Z,9.39
2023-05-09T21:36:06.544Z,9.52
2023-05-09T21:41:10.238Z,9.50
2023-05-09T21:46:12.662Z,9.47
2023-05-09T21:51:15.643Z,9.61
2023-05-09T21:56:17.760Z,9.63
2023-05-09T22:01:20.496Z,9.67
2023-05-09T22:06:23.034Z,9.57
2023-05-09T22:11:25.845Z,9.54
2023-05-09T22:16:29.023Z,9.68
2023-05-09T22:21:31.682Z,9.69
2023-05-09T22:26:34.352Z,9.50
2023-05-09T22:31:36.923Z,9.40
2023-05-09T22:36:39.036Z,9.25
2023-05-09T22:41:41.923Z,9.08
2023-05-09T22:46:44.659Z,9.08
2023-05-09T22:51:47.328Z,8.85
2023-05-09T22:56:49.730Z,8.79
2023-05-09T23:01:53.729Z,8.76
2023-05-09T23:06:56.489Z,8.42
2023-05-09T23:11:59.859Z,8.54
2023-05-09T23:17:02.500Z,8.57
2023-05-09T23:22:05.018Z,8.76
2023-05-09T23:27:07.692Z,8.87
2023-05-09T23:32:10.307Z,8.97
2023-05-09T23:37:12.719Z,9.00
2023-05-09T23:42:15.272Z,9.03
2023-05-09T23:47:17.806Z,8.87
2023-05-09T23:52:20.462Z,8.73
2023-05-09T23:57:22.514Z,8.75
